Latest Coastal Weather Observations for Swan Island

IDT60701

Issued at 12:42 am EST Monday 25 July 2016 (issued every 10 minutes, with the page automatically refreshed every 10 minutes)

About coastal observations | Map of coastal stations | Coastal observations for TAS | Marine services | Other Formats
Station Details ID: 092123 Name: SWAN ISLAND Lat: -40.73 Lon: 148.12 Height: 15.0 m
Data from the previous 72 hours. | See also: Recent months at Swan Island
Date/Time
EST
Temp
°C
Wind Pressure Rain since
9am
mm
Weather Cloud Vis
km
Sea
Height
m
Swell
Dir  Spd
kts
Gust
kts
hPa Trend Height
m
Period
s
Dir
25/12:30am 9.1 NNW 8 10 1002.4 - 8.2 - - - - - - -
25/12:00am 7.5 WNW 4 6 1002.8 - 8.0 Recent precip. - - - - - -
 
Date/Time
EST
Temp
°C
Wind Pressure Rain since
9am
mm
Weather Cloud Vis
km
Sea
Height
m
Swell
Dir  Spd
kts
Gust
kts
hPa Trend Height
m
Period
s
Dir
24/11:30pm 7.4 WSW 4 7 1003.1 - 8.0 - - - - - - -
24/11:00pm 7.9 SW 5 8 1003.6 - 7.2 - - - - - - -
24/10:30pm 8.5 W 5 8 1003.5 - 6.2 - - - - - - -
24/10:00pm 8.1 W 6 10 1003.5 - 6.2 - - - - - - -
24/09:30pm 8.7 W 7 11 1003.8 - 6.2 - - - - - - -
24/09:00pm 8.7 WNW 9 12 1004.0 - 6.2 Recent precip. - - - - - -
24/08:30pm 8.1 WNW 15 20 1004.1 - 6.2 - - - - - - -
24/08:00pm 8.3 NW 18 24 1004.6 - 6.0 - - - - - - -
24/07:30pm 7.9 WNW 9 20 1004.7 - 6.0 - - - - - - -
24/07:00pm 7.5 W 10 13 1005.1 - 6.0 - - - - - - -
24/06:30pm 8.0 W 11 17 1005.1 - 4.2 - - - - - - -
24/06:19pm 8.1 WNW 12 17 1005.0 - 3.6 - - - - - - -
24/06:00pm 8.4 NW 20 23 1004.7 - 3.2 Recent precip. - - - - - -
24/05:30pm 8.0 NW 16 20 1004.8 - 3.2 - - - - - - -
24/05:00pm 8.1 NNW 15 17 1004.8 - 2.0 - - - - - - -
24/04:30pm 8.6 NNW 13 16 1004.9 - 1.8 - - - - - - -
24/04:00pm 8.9 NW 12 16 1004.9 - 1.2 - - - - - - -
24/03:30pm 9.2 NW 17 21 1004.8 - 0.4 - - - - - - -
24/03:00pm 9.3 NNW 14 17 1005.0 - 0.4 Recent precip. - - - - - -
24/02:30pm 9.1 NNW 14 17 1005.3 - 0.2 - - - - - - -
24/02:00pm 10.8 WNW 12 16 1005.1 - 0.2 - - - - - - -
24/01:30pm 10.5 NW 12 17 1005.3 - 0.2 - - - - - - -
24/01:00pm 10.7 WNW 10 14 1005.8 - 0.0 - - - - - - -
24/12:30pm 11.8 WNW 8 13 1006.0 - 0.0 - - - - - - -
24/12:00pm 11.0 WNW 8 13 1006.5 - 0.0 - - - - - - -
24/11:30am 10.6 WNW 7 11 1007.0 - 0.0 - - - - - - -
24/11:00am 10.7 WNW 6 8 1007.4 - 0.0 - - - - - - -
24/10:30am 10.4 WNW 5 7 1007.4 - 0.0 - - - - - - -
24/10:00am 8.8 W 7 8 1007.5 - 0.0 - - - - - - -
24/09:30am 8.2 W 5 7 1007.4 - 0.0 - - - - - - -
24/09:00am 6.5 WSW 3 5 1007.5 - 0.2 - - - - - - -
24/08:30am 5.9 WSW 4 5 1007.5 - 0.2 - - - - - - -
24/08:00am 5.6 WSW 4 5 1007.5 - 0.2 - - - - - - -
24/07:30am 5.0 WSW 5 6 1007.4 - 0.2 - - - - - - -
24/07:00am 5.2 WSW 4 5 1007.6 - 0.2 - - - - - - -
24/06:30am 6.1 W 6 8 1007.4 - 0.2 - - - - - - -
24/06:00am 5.2 W 5 7 1007.6 - 0.2 - - - - - - -
24/05:30am 5.0 SSW 4 6 1007.0 - 0.2 - - - - - - -
24/05:00am 4.2 SW 4 6 1007.0 - 0.2 - - - - - - -
24/04:30am 4.4 SW 4 5 1007.1 - 0.2 - - - - - - -
24/04:00am 4.0 SW 4 5 1007.2 - 0.2 - - - - - - -
24/03:30am 4.6 WSW 5 7 1007.2 - 0.2 - - - - - - -
24/03:00am 4.8 WSW 7 10 1007.3 - 0.2 - - - - - - -
24/02:30am 4.3 WSW 6 8 1007.5 - 0.2 - - - - - - -
24/02:00am 4.4 WSW 7 10 1007.4 - 0.2 - - - - - - -
24/01:30am 4.8 SW 6 9 1007.4 - 0.2 - - - - - - -
24/01:00am 5.2 WSW 8 11 1007.3 - 0.2 - - - - - - -
24/12:30am 5.7 WSW 10 13 1006.9 - 0.2 - - - - - - -
24/12:00am 5.7 WSW 9 17 1006.8 - 0.2 - - - - - - -
 
Date/Time
EST
Temp
°C
Wind Pressure Rain since
9am
mm
Weather Cloud Vis
km
Sea
Height
m
Swell
Dir  Spd
kts
Gust
kts
hPa Trend Height
m
Period
s
Dir
23/11:30pm 5.7 WSW 9 13 1006.7 - 0.2 - - - - - - -
23/11:00pm 5.6 WSW 9 14 1006.6 - 0.2 - - - - - - -
23/10:30pm 6.1 WSW 12 20 1005.9 - 0.2 - - - - - - -
23/10:00pm 5.7 WSW 12 19 1005.4 - 0.2 - - - - - - -
23/09:30pm 5.8 WSW 12 21 1005.0 - 0.2 - - - - - - -
23/09:00pm 6.0 WSW 13 22 1004.4 - 0.2 - - - - - - -
23/08:30pm 6.0 WSW 14 22 1003.5 - 0.2 - - - - - - -
23/08:00pm 6.0 WSW 12 20 1002.7 - 0.2 - - - - - - -
23/07:30pm 6.2 WSW 11 19 1001.9 - 0.2 - - - - - - -
23/07:00pm 6.2 WSW 12 19 1001.1 - 0.2 - - - - - - -
23/06:30pm 6.1 WSW 12 20 1000.0 - 0.2 - - - - - - -
23/06:04pm 6.2 WSW 15 26 998.8 - 0.2 - - - - - - -
23/06:00pm 6.2 WSW 14 21 998.7 - 0.2 - - - - - - -
23/05:30pm 6.5 WSW 13 21 997.6 - 0.2 - - - - - - -
23/05:00pm 6.9 WSW 12 20 996.7 - 0.2 - - - - - - -
23/04:52pm 7.0 WSW 15 25 996.4 - 0.2 - - - - - - -
23/04:30pm 6.6 W 21 29 996.2 - 0.2 - - - - - - -
23/04:14pm 7.9 W 21 32 995.9 - 0.0 - - - - - - -
23/04:00pm 8.2 W 22 31 995.6 - 0.0 - - - - - - -
23/03:39pm 8.8 W 22 32 995.3 - 0.0 - - - - - - -
23/03:30pm 8.4 W 26 35 995.1 - 0.0 - - - - - - -
23/03:03pm 8.5 W 25 36 995.0 - 0.0 - - - - - - -
23/03:00pm 8.0 W 27 36 994.9 - 0.0 - - - - - - -
23/02:34pm 8.2 W 25 35 994.8 - 0.0 - - - - - - -
23/02:30pm 8.1 W 27 35 994.7 - 0.0 - - - - - - -
23/02:02pm 8.7 W 23 36 994.3 - 0.0 - - - - - - -
23/02:00pm 9.0 W 22 32 994.3 - 0.0 - - - - - - -
23/01:30pm 8.3 W 29 39 994.1 - 0.0 - - - - - - -
23/01:00pm 8.6 W 25 39 993.6 - 0.0 - - - - - - -
23/12:30pm 8.7 W 27 37 993.0 - 0.0 - - - - - - -
23/12:00pm 8.3 WSW 22 32 992.7 - 0.0 - - - - - - -
23/11:30am 7.9 WSW 24 34 992.2 - 0.0 - - - - - - -
23/11:00am 7.9 WSW 22 34 991.9 - 0.0 - - - - - - -
23/10:30am 7.6 WSW 21 34 991.6 - 0.0 - - - - - - -
23/10:00am 7.2 WSW 24 37 990.8 - 0.0 - - - - - - -
23/09:30am 8.2 WSW 24 36 990.0 - 0.0 - - - - - - -
23/09:00am 8.2 W 28 39 989.1 - 1.8 - - - - - - -
23/08:30am 8.6 W 26 40 988.8 - 1.8 - - - - - - -
23/08:00am 8.4 W 29 41 988.2 - 1.8 - - - - - - -
23/07:30am 8.6 W 27 38 987.6 - 1.8 - - - - - - -
23/07:00am 8.7 W 27 38 987.0 - 1.8 - - - - - - -
23/06:30am 9.0 W 22 34 986.6 - 1.8 - - - - - - -
23/06:00am 8.2 W 21 33 986.3 - 1.8 Recent precip. - - - - - -
23/05:42am 9.4 W 25 42 985.8 - 1.6 - - - - - - -
23/05:30am 9.7 W 21 31 985.8 - 1.6 - - - - - - -
23/05:22am 9.8 W 23 34 985.7 - 1.6 - - - - - - -
23/05:00am 9.9 W 22 31 985.5 - 1.6 - - - - - - -
23/04:48am 10.0 W 17 27 985.5 - 1.6 - - - - - - -
23/04:30am 10.0 W 19 25 985.4 - 1.6 - - - - - - -
23/04:00am 10.1 W 17 23 985.6 - 1.6 - - - - - - -
23/03:30am 9.8 W 16 22 985.7 - 1.6 - - - - - - -
23/03:00am 9.8 W 14 22 986.0 - 1.6 - - - - - - -
23/02:30am 9.9 W 17 24 986.4 - 1.6 - - - - - - -
23/02:00am 10.1 W 17 23 986.5 - 1.6 - - - - - - -
23/01:30am 9.9 W 18 26 986.4 - 1.6 - - - - - - -
23/01:00am 10.2 W 15 23 986.8 - 1.6 - - - - - - -
23/12:30am 10.4 WNW 18 24 987.0 - 1.6 - - - - - - -
23/12:00am 10.1 W 16 23 987.5 - 1.6 - - - - - - -
 
Date/Time
EST
Temp
°C
Wind Pressure Rain since
9am
mm
Weather Cloud Vis
km
Sea
Height
m
Swell
Dir  Spd
kts
Gust
kts
hPa Trend Height
m
Period
s
Dir
22/11:30pm 10.3 W 16 23 987.7 - 1.6 - - - - - - -
22/11:00pm 10.2 W 17 26 988.1 - 1.6 - - - - - - -
22/10:31pm 10.4 WNW 18 28 988.6 - 1.6 - - - - - - -
22/10:30pm 10.5 WNW 17 27 988.6 - 1.6 - - - - - - -
22/10:00pm 10.7 WNW 16 23 988.8 - 1.6 - - - - - - -
22/09:30pm 10.7 W 14 21 989.1 - 1.6 - - - - - - -
22/09:03pm 10.8 W 16 26 989.0 - 1.6 - - - - - - -
22/09:00pm 11.0 WNW 17 26 989.0 - 1.6 - - - - - - -
22/08:38pm 11.1 W 17 28 989.0 - 1.6 - - - - - - -
22/08:30pm 11.0 W 20 28 988.9 - 1.6 - - - - - - -
22/08:00pm 11.2 W 21 32 989.0 - 1.6 - - - - - - -
22/07:30pm 11.2 W 22 33 988.4 - 1.6 - - - - - - -
22/07:00pm 11.0 W 24 35 988.0 - 1.6 - - - - - - -
22/06:30pm 11.5 W 25 38 988.1 - 1.6 - - - - - - -
22/06:00pm 11.7 W 25 39 987.5 - 1.6 - - - - - - -
22/05:31pm 12.0 WNW 24 35 987.1 - 1.6 - - - - - - -
22/05:30pm 12.0 WNW 25 35 987.0 - 1.6 - - - - - - -
22/05:00pm 12.2 WNW 27 38 986.3 - 1.6 - - - - - - -
22/04:30pm 12.5 WNW 26 39 985.8 - 1.6 - - - - - - -
22/04:00pm 12.6 WNW 25 35 985.6 - 1.6 - - - - - - -
22/03:54pm 12.5 WNW 26 36 985.7 - 1.6 - - - - - - -
22/03:30pm 12.6 WNW 25 33 985.6 - 1.6 - - - - - - -
22/03:00pm 12.2 WNW 28 38 985.7 - 1.6 Recent precip. - - - - - -
22/02:35pm 11.5 WNW 27 37 985.4 - 1.6 - - - - - - -
22/02:30pm 11.4 WNW 27 35 985.5 - 1.6 - - - - - - -
22/02:00pm 12.4 NW 29 41 986.1 - 0.8 - - - - - - -
22/01:36pm 13.2 NW 28 38 985.8 - 0.0 - - - - - - -
22/01:30pm 13.3 NNW 27 33 986.1 - 0.0 - - - - - - -
22/01:00pm 14.0 NW 22 25 986.7 - 0.0 - - - - - - -
22/12:30pm 14.2 NW 23 27 987.5 - 0.0 - - - - - - -
22/12:00pm 13.7 NW 22 27 988.2 - 0.0 - - - - - - -
22/11:30am 13.9 NW 18 25 989.3 - 0.0 - - - - - - -
22/11:00am 13.5 NW 21 31 989.8 - 0.0 - - - - - - -
22/10:38am 13.6 NW 25 36 990.2 - 0.0 - - - - - - -
22/10:30am 13.5 NW 27 36 990.1 - 0.0 - - - - - - -
22/10:00am 13.7 NW 29 35 990.1 - 0.0 - - - - - - -
22/09:30am 13.8 NNW 29 36 990.5 - 0.0 - - - - - - -
22/09:00am 13.5 NNW 30 37 990.7 - 4.6 - - - - - - -
22/08:30am 12.8 NNW 28 33 990.9 - 4.6 - - - - - - -
22/08:00am 12.6 NNW 28 36 991.4 - 4.6 - - - - - - -
22/07:30am 12.7 NNW 29 37 991.7 - 4.2 - - - - - - -
22/07:00am 12.7 NNW 31 38 992.2 - 3.2 - - - - - - -
22/06:30am 12.9 NNW 34 40 992.8 - 2.2 - - - - - - -
22/06:00am 13.5 NNW 34 44 993.8 - 1.0 Rain - - - - - -
22/05:30am 14.2 NNW 31 38 993.7 - 0.8 - - - - - - -
22/05:00am 13.4 NNW 27 33 994.6 - 0.8 - - - - - - -
22/04:30am 14.3 NNW 29 35 994.6 - 0.2 - - - - - - -
22/04:00am 13.9 N 24 29 995.7 - 0.2 - - - - - - -
22/03:30am 13.6 N 24 29 996.8 - 0.2 - - - - - - -
22/03:00am 13.3 N 23 28 997.6 - 0.2 - - - - - - -
22/02:55am 13.2 N 22 26 997.8 - 0.2 - - - - - - -
22/02:30am 12.9 NNW 20 24 999.8 - 0.2 - - - - - - -
22/02:00am 12.7 NNW 19 22 1000.8 - 0.2 - - - - - - -
22/01:30am 12.8 NNW 19 23 1001.3 - 0.2 - - - - - - -
22/01:00am 12.7 NNW 18 21 1002.5 - 0.2 - - - - - - -

Other Formats:

Comma delimited format used in spreadsheet applications
http://www.bom.gov.au/fwo/IDT60701/IDT60701.95985.axf

JavaScript Object Notation format (JSON) in row-major order
http://www.bom.gov.au/fwo/IDT60701/IDT60701.95985.json